sensor_id;sensor_type;location;lat;lon;timestamp;P1;durP1;ratioP1;P2;durP2;ratioP2
67889;SDS011;54685;52.082;5.426;2023-07-31T00:00:51;4.38;;;2.08;;
67889;SDS011;54685;52.082;5.426;2023-07-31T00:03:18;3.00;;;2.05;;
67889;SDS011;54685;52.082;5.426;2023-07-31T00:05:45;3.05;;;2.25;;
67889;SDS011;54685;52.082;5.426;2023-07-31T00:08:12;2.60;;;2.28;;
67889;SDS011;54685;52.082;5.426;2023-07-31T00:10:39;2.35;;;2.08;;
67889;SDS011;54685;52.082;5.426;2023-07-31T00:13:06;4.45;;;2.30;;
67889;SDS011;54685;52.082;5.426;2023-07-31T00:15:33;6.38;;;2.17;;
67889;SDS011;54685;52.082;5.426;2023-07-31T00:17:59;2.22;;;1.70;;
67889;SDS011;54685;52.082;5.426;2023-07-31T00:20:27;3.85;;;2.08;;
67889;SDS011;54685;52.082;5.426;2023-07-31T00:22:54;2.35;;;1.90;;
67889;SDS011;54685;52.082;5.426;2023-07-31T00:25:21;4.65;;;2.80;;
67889;SDS011;54685;52.082;5.426;2023-07-31T00:27:48;7.25;;;3.50;;
67889;SDS011;54685;52.082;5.426;2023-07-31T00:30:15;10.20;;;3.90;;
67889;SDS011;54685;52.082;5.426;2023-07-31T00:32:42;15.52;;;5.28;;
67889;SDS011;54685;52.082;5.426;2023-07-31T00:35:09;15.30;;;4.75;;
67889;SDS011;54685;52.082;5.426;2023-07-31T00:37:37;17.77;;;6.47;;
67889;SDS011;54685;52.082;5.426;2023-07-31T00:40:04;21.85;;;6.75;;
67889;SDS011;54685;52.082;5.426;2023-07-31T00:42:31;24.08;;;7.32;;
67889;SDS011;54685;52.082;5.426;2023-07-31T00:44:58;26.48;;;7.50;;
67889;SDS011;54685;52.082;5.426;2023-07-31T00:47:25;32.95;;;7.15;;
67889;SDS011;54685;52.082;5.426;2023-07-31T00:49:52;40.53;;;8.77;;
67889;SDS011;54685;52.082;5.426;2023-07-31T00:52:19;39.67;;;9.02;;
67889;SDS011;54685;52.082;5.426;2023-07-31T00:54:46;45.00;;;8.73;;
67889;SDS011;54685;52.082;5.426;2023-07-31T00:57:14;46.30;;;9.32;;
67889;SDS011;54685;52.082;5.426;2023-07-31T00:59:41;38.72;;;8.85;;
67889;SDS011;54685;52.082;5.426;2023-07-31T01:02:08;36.78;;;8.45;;
67889;SDS011;54685;52.082;5.426;2023-07-31T01:04:35;42.00;;;9.07;;
67889;SDS011;54685;52.082;5.426;2023-07-31T01:10:19;42.10;;;9.27;;
67889;SDS011;54685;52.082;5.426;2023-07-31T01:12:51;39.17;;;8.50;;
67889;SDS011;54685;52.082;5.426;2023-07-31T01:15:20;46.58;;;9.43;;
67889;SDS011;54685;52.082;5.426;2023-07-31T01:17:47;39.80;;;9.20;;
67889;SDS011;54685;52.082;5.426;2023-07-31T01:20:14;35.45;;;8.80;;
67889;SDS011;54685;52.082;5.426;2023-07-31T01:28:05;37.00;;;9.85;;
67889;SDS011;54685;52.082;5.426;2023-07-31T01:30:39;34.58;;;9.02;;
67889;SDS011;54685;52.082;5.426;2023-07-31T01:33:09;38.58;;;9.23;;
67889;SDS011;54685;52.082;5.426;2023-07-31T01:35:37;33.42;;;9.02;;
67889;SDS011;54685;52.082;5.426;2023-07-31T01:38:04;32.00;;;7.88;;
67889;SDS011;54685;52.082;5.426;2023-07-31T01:40:31;29.88;;;8.38;;
67889;SDS011;54685;52.082;5.426;2023-07-31T01:42:58;31.20;;;8.00;;
67889;SDS011;54685;52.082;5.426;2023-07-31T01:45:25;38.90;;;8.55;;
67889;SDS011;54685;52.082;5.426;2023-07-31T01:47:53;26.20;;;8.02;;
67889;SDS011;54685;52.082;5.426;2023-07-31T01:50:20;29.35;;;7.68;;
67889;SDS011;54685;52.082;5.426;2023-07-31T01:52:47;33.75;;;9.05;;
67889;SDS011;54685;52.082;5.426;2023-07-31T01:55:14;34.90;;;9.02;;
67889;SDS011;54685;52.082;5.426;2023-07-31T01:57:42;27.10;;;7.63;;
67889;SDS011;54685;52.082;5.426;2023-07-31T02:00:09;36.67;;;9.57;;
67889;SDS011;54685;52.082;5.426;2023-07-31T02:02:39;21.35;;;5.95;;
67889;SDS011;54685;52.082;5.426;2023-07-31T02:05:06;22.50;;;6.38;;
67889;SDS011;54685;52.082;5.426;2023-07-31T02:07:33;24.92;;;6.95;;
67889;SDS011;54685;52.082;5.426;2023-07-31T02:09:59;20.25;;;6.80;;
67889;SDS011;54685;52.082;5.426;2023-07-31T02:12:26;16.88;;;5.35;;
67889;SDS011;54685;52.082;5.426;2023-07-31T02:14:56;16.70;;;6.13;;
67889;SDS011;54685;52.082;5.426;2023-07-31T02:17:24;15.52;;;5.82;;
67889;SDS011;54685;52.082;5.426;2023-07-31T02:19:51;24.08;;;6.07;;
67889;SDS011;54685;52.082;5.426;2023-07-31T02:22:17;24.70;;;7.07;;
67889;SDS011;54685;52.082;5.426;2023-07-31T02:24:45;17.30;;;5.60;;
67889;SDS011;54685;52.082;5.426;2023-07-31T02:27:11;18.90;;;6.30;;
67889;SDS011;54685;52.082;5.426;2023-07-31T02:29:38;21.10;;;6.68;;
67889;SDS011;54685;52.082;5.426;2023-07-31T02:32:05;18.13;;;5.47;;
67889;SDS011;54685;52.082;5.426;2023-07-31T02:34:33;22.23;;;6.20;;
67889;SDS011;54685;52.082;5.426;2023-07-31T02:37:00;19.90;;;5.70;;
67889;SDS011;54685;52.082;5.426;2023-07-31T02:39:26;22.88;;;6.55;;
67889;SDS011;54685;52.082;5.426;2023-07-31T02:41:53;27.48;;;6.82;;
67889;SDS011;54685;52.082;5.426;2023-07-31T02:44:22;25.40;;;6.93;;
67889;SDS011;54685;52.082;5.426;2023-07-31T02:46:49;24.50;;;6.63;;
67889;SDS011;54685;52.082;5.426;2023-07-31T02:49:16;22.17;;;6.55;;
67889;SDS011;54685;52.082;5.426;2023-07-31T02:51:43;21.73;;;6.47;;
67889;SDS011;54685;52.082;5.426;2023-07-31T02:54:10;25.70;;;7.60;;
67889;SDS011;54685;52.082;5.426;2023-07-31T02:56:37;22.60;;;7.07;;
67889;SDS011;54685;52.082;5.426;2023-07-31T02:59:04;30.80;;;7.43;;
67889;SDS011;54685;52.082;5.426;2023-07-31T03:01:31;30.73;;;7.93;;
67889;SDS011;54685;52.082;5.426;2023-07-31T03:03:58;36.55;;;8.93;;
67889;SDS011;54685;52.082;5.426;2023-07-31T03:06:25;31.00;;;8.57;;
67889;SDS011;54685;52.082;5.426;2023-07-31T03:08:53;24.73;;;7.90;;
67889;SDS011;54685;52.082;5.426;2023-07-31T03:11:20;37.90;;;8.75;;
67889;SDS011;54685;52.082;5.426;2023-07-31T03:13:47;24.42;;;7.68;;
67889;SDS011;54685;52.082;5.426;2023-07-31T03:16:14;39.45;;;8.75;;
67889;SDS011;54685;52.082;5.426;2023-07-31T03:18:41;39.83;;;8.93;;
67889;SDS011;54685;52.082;5.426;2023-07-31T03:21:08;40.20;;;10.27;;
67889;SDS011;54685;52.082;5.426;2023-07-31T03:23:35;26.58;;;8.55;;
67889;SDS011;54685;52.082;5.426;2023-07-31T03:26:02;36.65;;;9.10;;
67889;SDS011;54685;52.082;5.426;2023-07-31T03:28:31;28.70;;;8.45;;
67889;SDS011;54685;52.082;5.426;2023-07-31T03:30:59;29.17;;;8.63;;
67889;SDS011;54685;52.082;5.426;2023-07-31T03:33:26;32.53;;;8.50;;
67889;SDS011;54685;52.082;5.426;2023-07-31T03:35:53;28.52;;;9.02;;
67889;SDS011;54685;52.082;5.426;2023-07-31T03:38:20;31.67;;;9.13;;
67889;SDS011;54685;52.082;5.426;2023-07-31T03:40:47;32.72;;;9.05;;
67889;SDS011;54685;52.082;5.426;2023-07-31T03:43:14;25.67;;;8.10;;
67889;SDS011;54685;52.082;5.426;2023-07-31T03:45:41;25.58;;;7.97;;
67889;SDS011;54685;52.082;5.426;2023-07-31T03:48:08;33.15;;;8.63;;
67889;SDS011;54685;52.082;5.426;2023-07-31T03:50:35;27.85;;;8.00;;
67889;SDS011;54685;52.082;5.426;2023-07-31T03:53:02;26.27;;;8.90;;
67889;SDS011;54685;52.082;5.426;2023-07-31T03:55:29;30.45;;;8.60;;
67889;SDS011;54685;52.082;5.426;2023-07-31T03:57:55;27.73;;;8.48;;
67889;SDS011;54685;52.082;5.426;2023-07-31T04:00:22;23.70;;;8.30;;
67889;SDS011;54685;52.082;5.426;2023-07-31T04:02:49;32.58;;;9.15;;
67889;SDS011;54685;52.082;5.426;2023-07-31T04:05:16;32.03;;;8.80;;
67889;SDS011;54685;52.082;5.426;2023-07-31T04:07:43;31.58;;;8.40;;
67889;SDS011;54685;52.082;5.426;2023-07-31T04:10:10;20.98;;;7.60;;
67889;SDS011;54685;52.082;5.426;2023-07-31T04:12:39;22.42;;;7.93;;
67889;SDS011;54685;52.082;5.426;2023-07-31T04:15:06;27.23;;;7.78;;
67889;SDS011;54685;52.082;5.426;2023-07-31T04:17:33;25.20;;;7.80;;
67889;SDS011;54685;52.082;5.426;2023-07-31T04:20:00;28.90;;;8.02;;
67889;SDS011;54685;52.082;5.426;2023-07-31T04:22:27;22.73;;;7.35;;
67889;SDS011;54685;52.082;5.426;2023-07-31T04:24:54;22.67;;;8.60;;
67889;SDS011;54685;52.082;5.426;2023-07-31T04:27:21;25.42;;;7.75;;
67889;SDS011;54685;52.082;5.426;2023-07-31T04:29:48;29.63;;;8.43;;
67889;SDS011;54685;52.082;5.426;2023-07-31T04:32:14;26.35;;;8.05;;
67889;SDS011;54685;52.082;5.426;2023-07-31T04:34:45;33.28;;;9.13;;
67889;SDS011;54685;52.082;5.426;2023-07-31T04:37:12;21.88;;;7.30;;
67889;SDS011;54685;52.082;5.426;2023-07-31T04:39:39;26.40;;;8.23;;
67889;SDS011;54685;52.082;5.426;2023-07-31T04:42:06;26.00;;;7.20;;
67889;SDS011;54685;52.082;5.426;2023-07-31T04:44:33;28.27;;;8.20;;
67889;SDS011;54685;52.082;5.426;2023-07-31T04:46:59;26.23;;;7.82;;
67889;SDS011;54685;52.082;5.426;2023-07-31T04:49:26;32.60;;;7.40;;
67889;SDS011;54685;52.082;5.426;2023-07-31T04:51:53;25.77;;;7.82;;
67889;SDS011;54685;52.082;5.426;2023-07-31T04:54:20;21.60;;;7.38;;
67889;SDS011;54685;52.082;5.426;2023-07-31T04:56:47;31.08;;;8.32;;
67889;SDS011;54685;52.082;5.426;2023-07-31T04:59:14;23.17;;;7.45;;
67889;SDS011;54685;52.082;5.426;2023-07-31T05:01:41;28.50;;;7.85;;
67889;SDS011;54685;52.082;5.426;2023-07-31T05:04:09;19.88;;;7.68;;
67889;SDS011;54685;52.082;5.426;2023-07-31T05:06:36;26.58;;;8.48;;
67889;SDS011;54685;52.082;5.426;2023-07-31T05:09:03;27.83;;;8.73;;
67889;SDS011;54685;52.082;5.426;2023-07-31T05:11:30;25.20;;;8.00;;
67889;SDS011;54685;52.082;5.426;2023-07-31T05:13:56;28.13;;;8.02;;
67889;SDS011;54685;52.082;5.426;2023-07-31T05:16:23;25.48;;;8.15;;
67889;SDS011;54685;52.082;5.426;2023-07-31T05:18:50;20.75;;;6.85;;
67889;SDS011;54685;52.082;5.426;2023-07-31T05:21:17;27.02;;;7.63;;
67889;SDS011;54685;52.082;5.426;2023-07-31T05:23:44;22.92;;;7.47;;
67889;SDS011;54685;52.082;5.426;2023-07-31T05:26:11;23.95;;;7.07;;
67889;SDS011;54685;52.082;5.426;2023-07-31T05:28:38;13.68;;;6.35;;
67889;SDS011;54685;52.082;5.426;2023-07-31T05:31:05;20.00;;;6.03;;
67889;SDS011;54685;52.082;5.426;2023-07-31T05:33:33;16.25;;;6.15;;
67889;SDS011;54685;52.082;5.426;2023-07-31T05:36:00;17.20;;;6.38;;
67889;SDS011;54685;52.082;5.426;2023-07-31T05:38:26;16.77;;;5.85;;
67889;SDS011;54685;52.082;5.426;2023-07-31T05:40:53;14.85;;;4.43;;
67889;SDS011;54685;52.082;5.426;2023-07-31T05:43:20;14.10;;;5.35;;
67889;SDS011;54685;52.082;5.426;2023-07-31T05:45:47;11.98;;;4.93;;
67889;SDS011;54685;52.082;5.426;2023-07-31T05:48:14;13.65;;;5.00;;
67889;SDS011;54685;52.082;5.426;2023-07-31T05:50:40;14.82;;;5.50;;
67889;SDS011;54685;52.082;5.426;2023-07-31T05:53:09;13.88;;;6.10;;
67889;SDS011;54685;52.082;5.426;2023-07-31T05:55:36;15.02;;;5.90;;
67889;SDS011;54685;52.082;5.426;2023-07-31T05:58:03;20.70;;;6.55;;
67889;SDS011;54685;52.082;5.426;2023-07-31T06:00:30;14.73;;;6.38;;
67889;SDS011;54685;52.082;5.426;2023-07-31T06:02:57;13.38;;;6.07;;
67889;SDS011;54685;52.082;5.426;2023-07-31T06:05:23;18.35;;;7.43;;
67889;SDS011;54685;52.082;5.426;2023-07-31T06:07:50;13.45;;;5.97;;
67889;SDS011;54685;52.082;5.426;2023-07-31T06:10:17;15.80;;;6.38;;
67889;SDS011;54685;52.082;5.426;2023-07-31T06:12:44;16.50;;;6.75;;
67889;SDS011;54685;52.082;5.426;2023-07-31T06:15:11;17.55;;;6.45;;
67889;SDS011;54685;52.082;5.426;2023-07-31T06:17:38;13.27;;;5.53;;
67889;SDS011;54685;52.082;5.426;2023-07-31T06:20:06;15.30;;;6.07;;
67889;SDS011;54685;52.082;5.426;2023-07-31T06:22:33;14.18;;;6.15;;
67889;SDS011;54685;52.082;5.426;2023-07-31T06:24:59;16.75;;;6.00;;
67889;SDS011;54685;52.082;5.426;2023-07-31T06:27:26;14.85;;;5.93;;
67889;SDS011;54685;52.082;5.426;2023-07-31T06:29:53;18.25;;;6.50;;
67889;SDS011;54685;52.082;5.426;2023-07-31T06:32:20;13.90;;;5.68;;
67889;SDS011;54685;52.082;5.426;2023-07-31T06:34:47;10.77;;;5.32;;
67889;SDS011;54685;52.082;5.426;2023-07-31T06:37:14;10.93;;;4.90;;
67889;SDS011;54685;52.082;5.426;2023-07-31T06:39:41;12.65;;;4.82;;
67889;SDS011;54685;52.082;5.426;2023-07-31T06:42:08;12.10;;;4.97;;
67889;SDS011;54685;52.082;5.426;2023-07-31T06:44:35;10.50;;;4.43;;
67889;SDS011;54685;52.082;5.426;2023-07-31T06:47:02;11.93;;;5.03;;
67889;SDS011;54685;52.082;5.426;2023-07-31T06:49:29;13.90;;;4.93;;
67889;SDS011;54685;52.082;5.426;2023-07-31T06:51:56;7.47;;;4.60;;
67889;SDS011;54685;52.082;5.426;2023-07-31T06:54:22;11.70;;;4.82;;
67889;SDS011;54685;52.082;5.426;2023-07-31T06:56:49;12.48;;;4.50;;
67889;SDS011;54685;52.082;5.426;2023-07-31T06:59:16;13.00;;;4.70;;
67889;SDS011;54685;52.082;5.426;2023-07-31T07:01:43;9.52;;;4.60;;
67889;SDS011;54685;52.082;5.426;2023-07-31T07:04:10;7.47;;;4.30;;
67889;SDS011;54685;52.082;5.426;2023-07-31T07:06:36;9.00;;;4.88;;
67889;SDS011;54685;52.082;5.426;2023-07-31T07:09:04;10.57;;;4.72;;
67889;SDS011;54685;52.082;5.426;2023-07-31T07:11:31;9.05;;;4.78;;
67889;SDS011;54685;52.082;5.426;2023-07-31T07:13:58;11.07;;;5.40;;
67889;SDS011;54685;52.082;5.426;2023-07-31T07:16:28;8.75;;;4.78;;
67889;SDS011;54685;52.082;5.426;2023-07-31T07:18:55;6.85;;;4.55;;
67889;SDS011;54685;52.082;5.426;2023-07-31T07:21:30;8.80;;;4.50;;
67889;SDS011;54685;52.082;5.426;2023-07-31T07:23:57;6.90;;;4.32;;
67889;SDS011;54685;52.082;5.426;2023-07-31T07:26:24;10.05;;;4.60;;
67889;SDS011;54685;52.082;5.426;2023-07-31T07:28:51;9.50;;;4.97;;
67889;SDS011;54685;52.082;5.426;2023-07-31T07:31:18;10.43;;;5.53;;
67889;SDS011;54685;52.082;5.426;2023-07-31T07:33:45;12.32;;;5.53;;
67889;SDS011;54685;52.082;5.426;2023-07-31T07:36:12;8.27;;;4.55;;
67889;SDS011;54685;52.082;5.426;2023-07-31T07:38:39;9.13;;;4.72;;
67889;SDS011;54685;52.082;5.426;2023-07-31T07:41:07;8.02;;;5.03;;
67889;SDS011;54685;52.082;5.426;2023-07-31T07:43:34;10.05;;;4.70;;
67889;SDS011;54685;52.082;5.426;2023-07-31T07:46:01;10.50;;;5.20;;
67889;SDS011;54685;52.082;5.426;2023-07-31T07:48:28;10.85;;;4.80;;
67889;SDS011;54685;52.082;5.426;2023-07-31T07:50:55;10.07;;;4.22;;
67889;SDS011;54685;52.082;5.426;2023-07-31T07:53:22;6.00;;;3.90;;
67889;SDS011;54685;52.082;5.426;2023-07-31T07:55:48;6.47;;;3.58;;
67889;SDS011;54685;52.082;5.426;2023-07-31T07:58:15;4.97;;;3.90;;
67889;SDS011;54685;52.082;5.426;2023-07-31T08:00:47;7.75;;;3.75;;
67889;SDS011;54685;52.082;5.426;2023-07-31T08:03:16;4.00;;;3.45;;
67889;SDS011;54685;52.082;5.426;2023-07-31T08:05:43;8.13;;;3.80;;
67889;SDS011;54685;52.082;5.426;2023-07-31T08:08:14;7.25;;;3.83;;
67889;SDS011;54685;52.082;5.426;2023-07-31T08:10:44;4.07;;;2.85;;
67889;SDS011;54685;52.082;5.426;2023-07-31T08:13:11;3.72;;;3.28;;
67889;SDS011;54685;52.082;5.426;2023-07-31T08:15:38;3.33;;;2.75;;
67889;SDS011;54685;52.082;5.426;2023-07-31T08:18:07;4.97;;;3.30;;
67889;SDS011;54685;52.082;5.426;2023-07-31T08:20:34;5.10;;;3.70;;
67889;SDS011;54685;52.082;5.426;2023-07-31T08:23:01;7.35;;;3.85;;
67889;SDS011;54685;52.082;5.426;2023-07-31T08:25:28;5.72;;;3.40;;
67889;SDS011;54685;52.082;5.426;2023-07-31T08:27:55;4.10;;;3.20;;
67889;SDS011;54685;52.082;5.426;2023-07-31T08:30:22;4.68;;;2.83;;
67889;SDS011;54685;52.082;5.426;2023-07-31T08:32:49;6.43;;;3.83;;
67889;SDS011;54685;52.082;5.426;2023-07-31T08:35:16;5.35;;;2.97;;
67889;SDS011;54685;52.082;5.426;2023-07-31T08:37:43;4.10;;;2.88;;
67889;SDS011;54685;52.082;5.426;2023-07-31T08:40:10;3.17;;;2.80;;
67889;SDS011;54685;52.082;5.426;2023-07-31T08:42:43;3.78;;;2.67;;
67889;SDS011;54685;52.082;5.426;2023-07-31T08:45:15;4.78;;;2.10;;
67889;SDS011;54685;52.082;5.426;2023-07-31T08:47:44;2.50;;;2.30;;
67889;SDS011;54685;52.082;5.426;2023-07-31T08:50:14;3.88;;;2.22;;
67889;SDS011;54685;52.082;5.426;2023-07-31T08:52:43;2.95;;;2.45;;
67889;SDS011;54685;52.082;5.426;2023-07-31T08:55:10;3.03;;;2.70;;
67889;SDS011;54685;52.082;5.426;2023-07-31T08:57:37;2.72;;;2.50;;
67889;SDS011;54685;52.082;5.426;2023-07-31T09:00:06;3.13;;;2.72;;
67889;SDS011;54685;52.082;5.426;2023-07-31T09:02:36;3.63;;;2.92;;
67889;SDS011;54685;52.082;5.426;2023-07-31T09:05:07;2.92;;;2.40;;
67889;SDS011;54685;52.082;5.426;2023-07-31T09:07:35;3.47;;;3.10;;
67889;SDS011;54685;52.082;5.426;2023-07-31T09:10:03;3.38;;;2.95;;
67889;SDS011;54685;52.082;5.426;2023-07-31T09:12:30;3.60;;;3.03;;
67889;SDS011;54685;52.082;5.426;2023-07-31T09:14:58;4.00;;;3.03;;
67889;SDS011;54685;52.082;5.426;2023-07-31T09:17:28;2.67;;;2.38;;
67889;SDS011;54685;52.082;5.426;2023-07-31T09:20:15;6.85;;;3.50;;
67889;SDS011;54685;52.082;5.426;2023-07-31T09:22:44;3.83;;;3.33;;
67889;SDS011;54685;52.082;5.426;2023-07-31T09:25:21;3.30;;;3.00;;
67889;SDS011;54685;52.082;5.426;2023-07-31T09:27:50;4.50;;;3.40;;
67889;SDS011;54685;52.082;5.426;2023-07-31T09:30:19;5.40;;;3.75;;
67889;SDS011;54685;52.082;5.426;2023-07-31T09:32:47;5.25;;;3.85;;
67889;SDS011;54685;52.082;5.426;2023-07-31T09:37:58;5.68;;;3.63;;
67889;SDS011;54685;52.082;5.426;2023-07-31T09:40:33;8.10;;;3.67;;
67889;SDS011;54685;52.082;5.426;2023-07-31T09:43:06;6.35;;;4.13;;
67889;SDS011;54685;52.082;5.426;2023-07-31T09:45:35;6.45;;;4.00;;
67889;SDS011;54685;52.082;5.426;2023-07-31T09:48:08;4.78;;;3.38;;
67889;SDS011;54685;52.082;5.426;2023-07-31T09:50:37;5.38;;;2.85;;
67889;SDS011;54685;52.082;5.426;2023-07-31T09:53:05;5.00;;;3.42;;
67889;SDS011;54685;52.082;5.426;2023-07-31T09:55:33;5.72;;;3.35;;
67889;SDS011;54685;52.082;5.426;2023-07-31T09:58:03;4.28;;;2.97;;
67889;SDS011;54685;52.082;5.426;2023-07-31T10:00:32;5.85;;;3.40;;
67889;SDS011;54685;52.082;5.426;2023-07-31T10:03:00;4.45;;;3.10;;
67889;SDS011;54685;52.082;5.426;2023-07-31T10:05:49;6.05;;;3.55;;
67889;SDS011;54685;52.082;5.426;2023-07-31T10:08:18;7.75;;;4.07;;
67889;SDS011;54685;52.082;5.426;2023-07-31T10:10:47;5.70;;;4.30;;
67889;SDS011;54685;52.082;5.426;2023-07-31T10:13:14;7.57;;;4.55;;
67889;SDS011;54685;52.082;5.426;2023-07-31T10:15:42;5.93;;;3.95;;
67889;SDS011;54685;52.082;5.426;2023-07-31T10:18:10;5.68;;;4.45;;
67889;SDS011;54685;52.082;5.426;2023-07-31T10:20:38;8.88;;;4.88;;
67889;SDS011;54685;52.082;5.426;2023-07-31T10:23:05;11.65;;;5.00;;
67889;SDS011;54685;52.082;5.426;2023-07-31T10:25:32;9.40;;;5.28;;
67889;SDS011;54685;52.082;5.426;2023-07-31T10:28:01;5.50;;;4.60;;
67889;SDS011;54685;52.082;5.426;2023-07-31T10:30:29;8.32;;;5.32;;
67889;SDS011;54685;52.082;5.426;2023-07-31T10:32:58;7.63;;;5.15;;
67889;SDS011;54685;52.082;5.426;2023-07-31T10:35:27;11.00;;;5.55;;
67889;SDS011;54685;52.082;5.426;2023-07-31T10:38:03;6.03;;;4.93;;
67889;SDS011;54685;52.082;5.426;2023-07-31T10:40:38;5.78;;;4.88;;
67889;SDS011;54685;52.082;5.426;2023-07-31T10:43:06;8.63;;;5.20;;
67889;SDS011;54685;52.082;5.426;2023-07-31T10:45:36;7.35;;;5.32;;
67889;SDS011;54685;52.082;5.426;2023-07-31T10:48:14;10.50;;;5.95;;
67889;SDS011;54685;52.082;5.426;2023-07-31T10:50:49;8.75;;;5.97;;
67889;SDS011;54685;52.082;5.426;2023-07-31T10:53:30;8.48;;;5.50;;
67889;SDS011;54685;52.082;5.426;2023-07-31T10:55:59;8.55;;;4.93;;
67889;SDS011;54685;52.082;5.426;2023-07-31T10:58:26;7.10;;;4.90;;
67889;SDS011;54685;52.082;5.426;2023-07-31T11:00:57;10.65;;;5.10;;
67889;SDS011;54685;52.082;5.426;2023-07-31T11:03:42;7.05;;;4.80;;
67889;SDS011;54685;52.082;5.426;2023-07-31T11:06:12;6.07;;;4.32;;
67889;SDS011;54685;52.082;5.426;2023-07-31T11:08:47;7.20;;;4.93;;
67889;SDS011;54685;52.082;5.426;2023-07-31T11:11:16;4.45;;;3.85;;
67889;SDS011;54685;52.082;5.426;2023-07-31T11:13:47;6.25;;;3.92;;
67889;SDS011;54685;52.082;5.426;2023-07-31T11:18:48;5.88;;;3.30;;
67889;SDS011;54685;52.082;5.426;2023-07-31T11:21:18;3.60;;;3.28;;
67889;SDS011;54685;52.082;5.426;2023-07-31T11:23:48;3.17;;;2.70;;
67889;SDS011;54685;52.082;5.426;2023-07-31T11:26:19;3.78;;;3.28;;
67889;SDS011;54685;52.082;5.426;2023-07-31T11:28:47;3.55;;;3.25;;
67889;SDS011;54685;52.082;5.426;2023-07-31T11:31:15;7.38;;;3.35;;
67889;SDS011;54685;52.082;5.426;2023-07-31T11:33:43;5.25;;;3.65;;
67889;SDS011;54685;52.082;5.426;2023-07-31T11:36:19;4.53;;;4.00;;
67889;SDS011;54685;52.082;5.426;2023-07-31T11:38:47;5.10;;;4.10;;
67889;SDS011;54685;52.082;5.426;2023-07-31T11:41:15;4.60;;;3.45;;
67889;SDS011;54685;52.082;5.426;2023-07-31T11:43:43;7.07;;;4.30;;
67889;SDS011;54685;52.082;5.426;2023-07-31T11:46:11;5.22;;;4.18;;
67889;SDS011;54685;52.082;5.426;2023-07-31T11:48:41;7.63;;;5.55;;
67889;SDS011;54685;52.082;5.426;2023-07-31T11:51:09;6.60;;;4.80;;
67889;SDS011;54685;52.082;5.426;2023-07-31T11:53:43;8.18;;;4.35;;
67889;SDS011;54685;52.082;5.426;2023-07-31T11:56:24;8.43;;;5.47;;
67889;SDS011;54685;52.082;5.426;2023-07-31T11:59:00;7.53;;;4.85;;
67889;SDS011;54685;52.082;5.426;2023-07-31T12:01:29;8.23;;;5.40;;
67889;SDS011;54685;52.082;5.426;2023-07-31T12:03:57;5.22;;;4.32;;
67889;SDS011;54685;52.082;5.426;2023-07-31T12:06:37;6.65;;;4.78;;
67889;SDS011;54685;52.082;5.426;2023-07-31T12:09:04;5.80;;;4.95;;
67889;SDS011;54685;52.082;5.426;2023-07-31T12:11:42;6.75;;;4.30;;
67889;SDS011;54685;52.082;5.426;2023-07-31T12:14:26;4.22;;;3.55;;
67889;SDS011;54685;52.082;5.426;2023-07-31T12:16:58;8.13;;;4.25;;
67889;SDS011;54685;52.082;5.426;2023-07-31T12:19:27;6.35;;;4.10;;
67889;SDS011;54685;52.082;5.426;2023-07-31T12:21:57;4.43;;;4.07;;
67889;SDS011;54685;52.082;5.426;2023-07-31T12:24:27;8.65;;;4.25;;
67889;SDS011;54685;52.082;5.426;2023-07-31T12:26:54;3.95;;;3.65;;
67889;SDS011;54685;52.082;5.426;2023-07-31T12:29:21;3.50;;;3.20;;
67889;SDS011;54685;52.082;5.426;2023-07-31T12:31:48;3.92;;;3.38;;
67889;SDS011;54685;52.082;5.426;2023-07-31T12:34:16;4.32;;;3.03;;
67889;SDS011;54685;52.082;5.426;2023-07-31T12:36:44;3.42;;;3.13;;
67889;SDS011;54685;52.082;5.426;2023-07-31T12:39:12;6.20;;;3.78;;
67889;SDS011;54685;52.082;5.426;2023-07-31T12:41:39;3.90;;;3.60;;
67889;SDS011;54685;52.082;5.426;2023-07-31T12:44:06;5.07;;;4.18;;
67889;SDS011;54685;52.082;5.426;2023-07-31T12:46:35;6.65;;;5.28;;
67889;SDS011;54685;52.082;5.426;2023-07-31T12:49:04;5.00;;;4.65;;
67889;SDS011;54685;52.082;5.426;2023-07-31T12:51:31;5.88;;;4.38;;
67889;SDS011;54685;52.082;5.426;2023-07-31T12:53:57;5.15;;;4.63;;
67889;SDS011;54685;52.082;5.426;2023-07-31T12:56:24;5.75;;;4.90;;
67889;SDS011;54685;52.082;5.426;2023-07-31T12:58:51;5.05;;;4.60;;
67889;SDS011;54685;52.082;5.426;2023-07-31T13:01:18;4.38;;;3.92;;
67889;SDS011;54685;52.082;5.426;2023-07-31T13:03:44;4.90;;;4.40;;
67889;SDS011;54685;52.082;5.426;2023-07-31T13:06:11;7.13;;;5.45;;
67889;SDS011;54685;52.082;5.426;2023-07-31T13:08:38;8.40;;;5.88;;
67889;SDS011;54685;52.082;5.426;2023-07-31T13:11:05;5.70;;;5.20;;
67889;SDS011;54685;52.082;5.426;2023-07-31T13:13:32;5.90;;;5.40;;
67889;SDS011;54685;52.082;5.426;2023-07-31T13:15:59;6.60;;;5.78;;
67889;SDS011;54685;52.082;5.426;2023-07-31T13:18:26;5.70;;;4.90;;
67889;SDS011;54685;52.082;5.426;2023-07-31T13:20:53;6.32;;;4.53;;
67889;SDS011;54685;52.082;5.426;2023-07-31T13:23:20;4.88;;;4.47;;
67889;SDS011;54685;52.082;5.426;2023-07-31T13:25:46;4.90;;;4.50;;
67889;SDS011;54685;52.082;5.426;2023-07-31T13:28:13;8.13;;;3.70;;
67889;SDS011;54685;52.082;5.426;2023-07-31T13:30:40;4.53;;;3.60;;
67889;SDS011;54685;52.082;5.426;2023-07-31T13:33:08;5.45;;;3.67;;
67889;SDS011;54685;52.082;5.426;2023-07-31T13:35:55;4.15;;;3.75;;
67889;SDS011;54685;52.082;5.426;2023-07-31T13:38:24;4.88;;;3.83;;
67889;SDS011;54685;52.082;5.426;2023-07-31T13:40:51;5.43;;;3.88;;
67889;SDS011;54685;52.082;5.426;2023-07-31T13:43:18;6.18;;;4.10;;
67889;SDS011;54685;52.082;5.426;2023-07-31T13:45:45;6.60;;;4.35;;
67889;SDS011;54685;52.082;5.426;2023-07-31T13:48:11;5.28;;;4.13;;
67889;SDS011;54685;52.082;5.426;2023-07-31T13:50:38;4.47;;;3.85;;
67889;SDS011;54685;52.082;5.426;2023-07-31T13:53:05;5.78;;;4.80;;
67889;SDS011;54685;52.082;5.426;2023-07-31T13:55:32;6.43;;;5.72;;
67889;SDS011;54685;52.082;5.426;2023-07-31T13:57:59;8.50;;;6.90;;
67889;SDS011;54685;52.082;5.426;2023-07-31T14:00:25;8.02;;;7.25;;
67889;SDS011;54685;52.082;5.426;2023-07-31T14:02:54;8.13;;;7.25;;
67889;SDS011;54685;52.082;5.426;2023-07-31T14:05:21;8.95;;;7.68;;
67889;SDS011;54685;52.082;5.426;2023-07-31T14:07:48;11.02;;;8.00;;
67889;SDS011;54685;52.082;5.426;2023-07-31T14:10:15;9.82;;;8.85;;
67889;SDS011;54685;52.082;5.426;2023-07-31T14:12:42;9.40;;;8.50;;
67889;SDS011;54685;52.082;5.426;2023-07-31T14:15:09;13.32;;;10.48;;
67889;SDS011;54685;52.082;5.426;2023-07-31T14:17:36;11.18;;;10.00;;
67889;SDS011;54685;52.082;5.426;2023-07-31T14:20:03;10.27;;;9.00;;
67889;SDS011;54685;52.082;5.426;2023-07-31T14:22:31;13.50;;;10.93;;
67889;SDS011;54685;52.082;5.426;2023-07-31T14:25:00;11.57;;;10.02;;
67889;SDS011;54685;52.082;5.426;2023-07-31T14:27:27;11.30;;;7.93;;
67889;SDS011;54685;52.082;5.426;2023-07-31T14:29:54;10.45;;;8.18;;
67889;SDS011;54685;52.082;5.426;2023-07-31T14:32:22;9.35;;;8.32;;
67889;SDS011;54685;52.082;5.426;2023-07-31T14:34:51;8.65;;;7.57;;
67889;SDS011;54685;52.082;5.426;2023-07-31T14:37:18;9.27;;;8.38;;
67889;SDS011;54685;52.082;5.426;2023-07-31T14:39:45;12.43;;;8.80;;
67889;SDS011;54685;52.082;5.426;2023-07-31T14:42:11;9.88;;;8.88;;
67889;SDS011;54685;52.082;5.426;2023-07-31T14:44:38;13.13;;;9.70;;
67889;SDS011;54685;52.082;5.426;2023-07-31T14:47:05;10.80;;;8.43;;
67889;SDS011;54685;52.082;5.426;2023-07-31T14:49:32;12.07;;;8.77;;
67889;SDS011;54685;52.082;5.426;2023-07-31T14:51:59;8.35;;;7.00;;
67889;SDS011;54685;52.082;5.426;2023-07-31T14:54:25;8.90;;;6.75;;
67889;SDS011;54685;52.082;5.426;2023-07-31T14:56:52;12.55;;;6.90;;
67889;SDS011;54685;52.082;5.426;2023-07-31T14:59:19;8.20;;;6.55;;